< Typhoon 198120 1981 Season Typhoon 198122 >
Typhoon 198121 (DOYLE)
General InformationTrack Information on Google MapsDetailed Wind InformationList of All Images || Disaster Info.ResourceGoogle EarthGE AnimationAtom FeedGeoJSON
Detalied Best Track (Time Zone = UTC)
Year Month Day Hour Lat. Long. Pressure (hPa) Wind (kt) Class Image Chart
1981 9 19 00 25.0 168.0 1012 0 2 Image Chart
1981 9 19 06 25.3 167.3 1012 0 2 Image Chart
1981 9 19 12 25.7 166.7 1008 0 2 Image Chart
1981 9 19 18 26.0 166.0 1004 0 2 Image Chart
1981 9 20 00 26.4 165.2 1000 0 2 Image Chart
1981 9 20 06 26.7 164.3 996 35 3 Image Chart
1981 9 20 12 26.9 163.4 990 35 3 Image Chart
1981 9 20 18 27.0 162.4 985 40 3 Image Chart
1981 9 21 00 27.3 161.7 980 50 4 Image Chart
1981 9 21 06 27.9 161.4 970 65 5 Image Chart
1981 9 21 12 28.5 161.4 965 65 5 Image Chart
1981 9 21 18 29.1 161.8 965 70 5 Image Chart
1981 9 22 00 29.4 162.4 965 70 5 Image Chart
1981 9 22 06 29.9 163.1 965 70 5 Image Chart
1981 9 22 12 30.9 164.4 965 70 5 Image Chart
1981 9 22 18 32.4 165.8 970 70 5 Image Chart
1981 9 23 00 34.0 167.3 980 65 5 Image Chart
1981 9 23 06 35.3 169.2 985 55 4 Image Chart
1981 9 23 12 36.6 171.1 990 45 3 Image Chart
1981 9 23 18 37.8 173.0 996 0 6 Image Chart
1981 9 24 00 39.0 175.0 1000 0 6 Image Chart
1981 9 24 06 39.5 177.0 1004 0 6 Image Chart
1981 9 24 12 39.5 179.0 1008 0 6 Image Chart
Japan Meteorological Agency Best Track Data | Correction Date : 1992-10-21
< Typhoon 198120 1981 Season Typhoon 198122 >

Help